Time;durP1;ratioP1;P1;durP2;ratioP2;P2;SDS_P1;SDS_P2;PMS_P1;PMS_P2;Temp;Humidity;BMP_temperature;BMP_pressure;BME280_temperature;BME280_humidity;BME280_pressure;Samples;Min_cycle;Max_cycle;Signal;HPM_P1;HPM_P2
2023/04/14 00:02:51;;;;;;;;;;;;;;;;;;137647;1273;22214;-81
2023/04/14 00:05:52;;;;;;;;;;;;;;;;;;137665;1273;22370;-82
2023/04/14 00:08:53;;;;;;;;;;;;;;;;;;137569;1273;22332;-81
2023/04/14 00:11:55;;;;;;;;;;;;;;;;;;137596;1273;22906;-81
2023/04/14 00:14:56;;;;;;;;;;;;;;;;;;137545;1270;22907;-81
2023/04/14 00:17:57;;;;;;;;;;;;;;;;;;137596;1258;22183;-83
2023/04/14 00:20:58;;;;;;;;;;;;;;;;;;137588;1273;22181;-81
2023/04/14 00:23:59;;;;;;;;;;;;;;;;;;137631;1273;22617;-81
2023/04/14 00:27:00;;;;;;;;;;;;;;;;;;137656;1273;22651;-82
2023/04/14 00:30:02;;;;;;;;;;;;;;;;;;137632;1273;22629;-81
2023/04/14 00:33:03;;;;;;;;;;;;;;;;;;137699;1273;22715;-81
2023/04/14 00:36:04;;;;;;;;;;;;;;;;;;137670;1272;22826;-81
2023/04/14 00:39:05;;;;;;;;;;;;;;;;;;137699;1273;22171;-81
2023/04/14 00:42:06;;;;;;;;;;;;;;;;;;137681;1273;22154;-82
2023/04/14 00:45:07;;;;;;;;;;;;;;;;;;137667;1273;22177;-82
2023/04/14 00:48:11;;;;;;;;;;;;;;;;;;137667;1267;22155;-82
2023/04/14 00:51:12;;;;;;;;;;;;;;;;;;137630;1273;22204;-82
2023/04/14 00:54:14;;;;;;;;;;;;;;;;;;137589;1273;22168;-83
2023/04/14 00:57:15;;;;;;;;;;;;;;;;;;137629;1273;22137;-82
2023/04/14 01:00:16;;;;;;;;;;;;;;;;;;137618;1272;22218;-82
2023/04/14 01:03:17;;;;;;;;;;;;;;;;;;137622;1273;22382;-82
2023/04/14 01:06:18;;;;;;;;;;;;;;;;;;137582;1273;22355;-83
2023/04/14 01:09:19;;;;;;;;;;;;;;;;;;137625;1272;22188;-82
2023/04/14 01:12:20;;;;;;;;;;;;;;;;;;137621;1273;22327;-81
2023/04/14 01:15:24;;;;;;;;;;;;;;;;;;137650;1273;22223;-82
2023/04/14 01:18:25;;;;;;;;;;;;;;;;;;137598;1273;22176;-83
2023/04/14 01:21:27;;;;;;;;;;;;;;;;;;137624;1273;22176;-82
2023/04/14 01:24:28;;;;;;;;;;;;;;;;;;137652;1273;22163;-83
2023/04/14 01:27:29;;;;;;;;;;;;;;;;;;137615;1273;22223;-83
2023/04/14 01:30:30;;;;;;;;;;;;;;;;;;137656;1273;22206;-83
2023/04/14 01:33:31;;;;;;;;;;;;;;;;;;137636;1273;22160;-80
2023/04/14 01:36:32;;;;;;;;;;;;;;;;;;137626;1272;22376;-83
2023/04/14 01:39:33;;;;;;;;;;;;;;;;;;137634;1273;22424;-83
2023/04/14 01:42:34;;;;;;;;;;;;;;;;;;137603;1273;22175;-82
2023/04/14 01:45:35;;;;;;;;;;;;;;;;;;137640;1273;22203;-83
2023/04/14 01:48:36;;;;;;;;;;;;;;;;;;137629;1273;22237;-81
2023/04/14 01:51:37;;;;;;;;;;;;;;;;;;137629;1273;22190;-81
2023/04/14 01:54:39;;;;;;;;;;;;;;;;;;137634;1273;22533;-81
2023/04/14 01:57:40;;;;;;;;;;;;;;;;;;137629;1273;22719;-82
2023/04/14 02:00:41;;;;;;;;;;;;;;;;;;137630;1273;22275;-79
2023/04/14 02:03:42;;;;;;;;;;;;;;;;;;137635;1273;22228;-82
2023/04/14 02:06:43;;;;;;;;;;;;;;;;;;137616;1273;22695;-81
2023/04/14 02:09:44;;;;;;;;;;;;;;;;;;137599;1273;22156;-82
2023/04/14 02:12:45;;;;;;;;;;;;;;;;;;137591;1273;22228;-81
2023/04/14 02:15:47;;;;;;;;;;;;;;;;;;137609;1260;22273;-82
2023/04/14 02:18:48;;;;;;;;;;;;;;;;;;137572;1273;22195;-83
2023/04/14 02:21:49;;;;;;;;;;;;;;;;;;137621;1273;22605;-82
2023/04/14 02:24:53;;;;;;;;;;;;;;;;;;137657;1268;22215;-82
2023/04/14 02:27:55;;;;;;;;;;;;;;;;;;137725;1262;22189;-83
2023/04/14 02:30:56;;;;;;;;;;;;;;;;;;137692;1273;22297;-84
2023/04/14 02:33:57;;;;;;;;;;;;;;;;;;137714;1273;22286;-82
2023/04/14 02:36:58;;;;;;;;;;;;;;;;;;137713;1273;22366;-85
2023/04/14 02:39:59;;;;;;;;;;;;;;;;;;137646;1273;22327;-82
2023/04/14 02:43:00;;;;;;;;;;;;;;;;;;137586;1273;22225;-83
2023/04/14 02:46:02;;;;;;;;;;;;;;;;;;137597;1273;22315;-83
2023/04/14 02:49:04;;;;;;;;;;;;;;;;;;137558;1273;22165;-83
2023/04/14 02:52:05;;;;;;;;;;;;;;;;;;137647;1273;22260;-81
2023/04/14 02:55:07;;;;;;;;;;;;;;;;;;137670;1273;22366;-81
2023/04/14 02:58:08;;;;;;;;;;;;;;;;;;137627;1273;22200;-82
2023/04/14 03:01:12;;;;;;;;;;;;;;;;;;137636;1273;22185;-82
2023/04/14 03:04:13;;;;;;;;;;;;;;;;;;137640;1273;22732;-82
2023/04/14 03:07:14;;;;;;;;;;;;;;;;;;137647;1270;22881;-81
2023/04/14 03:10:15;;;;;;;;;;;;;;;;;;137641;1273;22186;-82
2023/04/14 03:13:16;;;;;;;;;;;;;;;;;;137620;1273;22202;-81
2023/04/14 03:16:17;;;;;;;;;;;;;;;;;;137690;1273;22285;-82
2023/04/14 03:19:19;;;;;;;;;;;;;;;;;;137618;1273;22187;-81
2023/04/14 03:22:20;;;;;;;;;;;;;;;;;;137627;1273;22289;-80
2023/04/14 03:25:22;;;;;;;;;;;;;;;;;;137606;1273;22235;-82
2023/04/14 03:28:23;;;;;;;;;;;;;;;;;;137674;1266;22288;-82
2023/04/14 03:31:24;;;;;;;;;;;;;;;;;;137644;1273;22207;-80
2023/04/14 03:34:25;;;;;;;;;;;;;;;;;;137604;1273;22281;-83
2023/04/14 03:37:26;;;;;;;;;;;;;;;;;;137648;1273;22366;-82
2023/04/14 03:40:29;;;;;;;;;;;;;;;;;;137583;1273;22273;-82
2023/04/14 03:43:32;;;;;;;;;;;;;;;;;;137571;1273;22277;-83
2023/04/14 03:46:33;;;;;;;;;;;;;;;;;;137558;1273;22269;-81
2023/04/14 03:49:35;;;;;;;;;;;;;;;;;;137584;1273;22316;-82
2023/04/14 03:52:36;;;;;;;;;;;;;;;;;;137614;1273;22186;-82
2023/04/14 03:55:37;;;;;;;;;;;;;;;;;;137593;1273;22282;-82
2023/04/14 03:58:38;;;;;;;;;;;;;;;;;;137601;1262;22592;-82
2023/04/14 04:01:39;;;;;;;;;;;;;;;;;;137615;1273;22184;-82
2023/04/14 04:04:40;;;;;;;;;;;;;;;;;;137608;1273;22214;-82
2023/04/14 04:07:41;;;;;;;;;;;;;;;;;;137670;1273;22436;-82
2023/04/14 04:10:42;;;;;;;;;;;;;;;;;;137623;1273;22740;-82
2023/04/14 04:13:43;;;;;;;;;;;;;;;;;;137590;1273;22180;-82
2023/04/14 04:16:46;;;;;;;;;;;;;;;;;;137596;1273;22335;-82
2023/04/14 04:19:47;;;;;;;;;;;;;;;;;;137566;1273;22710;-82
2023/04/14 04:22:48;;;;;;;;;;;;;;;;;;137569;1268;22202;-82
2023/04/14 04:25:49;;;;;;;;;;;;;;;;;;137545;1272;22248;-80
2023/04/14 04:28:51;;;;;;;;;;;;;;;;;;137541;1273;22276;-81
2023/04/14 04:31:52;;;;;;;;;;;;;;;;;;137584;1273;22402;-82
2023/04/14 04:34:53;;;;;;;;;;;;;;;;;;137605;1273;22261;-81
2023/04/14 04:37:55;;;;;;;;;;;;;;;;;;137559;1273;22825;-81
2023/04/14 04:40:56;;;;;;;;;;;;;;;;;;137601;1269;22253;-80
2023/04/14 04:43:58;;;;;;;;;;;;;;;;;;137583;1273;22274;-82
2023/04/14 04:46:59;;;;;;;;;;;;;;;;;;137547;1273;22365;-80
2023/04/14 04:50:21;;;;;;;;;;;;;;;;;;137532;1273;22431;-81
2023/04/14 04:53:23;;;;;;;;;;;;;;;;;;137604;1273;22180;-80
2023/04/14 04:56:25;;;;;;;;;;;;;;;;;;137578;1273;22678;-80
2023/04/14 04:59:26;;;;;;;;;;;;;;;;;;137520;1273;22274;-79
2023/04/14 05:02:27;;;;;;;;;;;;;;;;;;137535;1273;22259;-81
2023/04/14 05:05:28;;;;;;;;;;;;;;;;;;137565;1273;22392;-81
2023/04/14 05:08:29;;;;;;;;;;;;;;;;;;137585;1273;22302;-82
2023/04/14 05:11:30;;;;;;;;;;;;;;;;;;137543;1272;22298;-80
2023/04/14 05:14:31;;;;;;;;;;;;;;;;;;137590;1273;22182;-80
2023/04/14 05:17:32;;;;;;;;;;;;;;;;;;137612;1273;22167;-80
2023/04/14 05:20:33;;;;;;;;;;;;;;;;;;137640;1273;22163;-81
2023/04/14 05:23:35;;;;;;;;;;;;;;;;;;137585;1273;22342;-81
2023/04/14 05:26:36;;;;;;;;;;;;;;;;;;137554;1273;22290;-80
2023/04/14 05:29:37;;;;;;;;;;;;;;;;;;137566;1273;22964;-81
2023/04/14 05:32:38;;;;;;;;;;;;;;;;;;137588;1273;22317;-79
2023/04/14 05:35:39;;;;;;;;;;;;;;;;;;137638;1273;22459;-81
2023/04/14 05:38:41;;;;;;;;;;;;;;;;;;137634;1273;22659;-76
2023/04/14 05:41:42;;;;;;;;;;;;;;;;;;137521;1273;22657;-75
2023/04/14 05:44:43;;;;;;;;;;;;;;;;;;137577;1273;22243;-80
2023/04/14 05:47:44;;;;;;;;;;;;;;;;;;137515;1273;22168;-80
2023/04/14 05:50:45;;;;;;;;;;;;;;;;;;137608;1273;22155;-81
2023/04/14 05:53:46;;;;;;;;;;;;;;;;;;137603;1273;22252;-82
2023/04/14 05:56:47;;;;;;;;;;;;;;;;;;137580;1273;22171;-80
2023/04/14 05:59:48;;;;;;;;;;;;;;;;;;137605;1273;22284;-81
2023/04/14 06:02:50;;;;;;;;;;;;;;;;;;137584;1273;22296;-81
2023/04/14 06:05:51;;;;;;;;;;;;;;;;;;137610;1273;22392;-81
2023/04/14 06:08:53;;;;;;;;;;;;;;;;;;137642;1273;22173;-80
2023/04/14 06:11:55;;;;;;;;;;;;;;;;;;137548;1273;22192;-81
2023/04/14 06:14:56;;;;;;;;;;;;;;;;;;137612;1273;22194;-81
2023/04/14 06:17:57;;;;;;;;;;;;;;;;;;137608;1270;22237;-81
2023/04/14 06:21:00;;;;;;;;;;;;;;;;;;137615;1273;22177;-79
2023/04/14 06:24:04;;;;;;;;;;;;;;;;;;137606;1273;22194;-80
2023/04/14 06:27:05;;;;;;;;;;;;;;;;;;137632;1273;22794;-79
2023/04/14 06:30:06;;;;;;;;;;;;;;;;;;137574;1273;22279;-80
2023/04/14 06:33:08;;;;;;;;;;;;;;;;;;137680;1273;22288;-78
2023/04/14 06:36:09;;;;;;;;;;;;;;;;;;137581;1273;22411;-79
2023/04/14 06:39:10;;;;;;;;;;;;;;;;;;137612;1273;23168;-79
2023/04/14 06:42:12;;;;;;;;;;;;;;;;;;137587;1273;22350;-80
2023/04/14 06:45:13;;;;;;;;;;;;;;;;;;137588;1273;22747;-81
2023/04/14 06:48:14;;;;;;;;;;;;;;;;;;137605;1273;22258;-80
2023/04/14 06:51:15;;;;;;;;;;;;;;;;;;137646;1273;22209;-79
2023/04/14 06:54:16;;;;;;;;;;;;;;;;;;137630;1273;22308;-79
2023/04/14 06:57:17;;;;;;;;;;;;;;;;;;137629;1273;22223;-79
2023/04/14 07:00:19;;;;;;;;;;;;;;;;;;137607;1273;22270;-79
2023/04/14 07:03:20;;;;;;;;;;;;;;;;;;137653;1262;22231;-79
2023/04/14 07:06:21;;;;;;;;;;;;;;;;;;137620;1273;22768;-80
2023/04/14 07:09:23;;;;;;;;;;;;;;;;;;137603;1273;22278;-80
2023/04/14 07:12:24;;;;;;;;;;;;;;;;;;137390;1273;216867;-80
2023/04/14 07:15:25;;;;;;;;;;;;;;;;;;137616;1273;22218;-80
2023/04/14 07:18:26;;;;;;;;;;;;;;;;;;137649;1267;22285;-81
2023/04/14 07:21:28;;;;;;;;;;;;;;;;;;137626;1273;22192;-81
2023/04/14 07:24:29;;;;;;;;;;;;;;;;;;137583;1273;22280;-81
2023/04/14 07:27:30;;;;;;;;;;;;;;;;;;137585;1273;22193;-80
2023/04/14 07:30:32;;;;;;;;;;;;;;;;;;137578;1273;22274;-81
2023/04/14 07:33:34;;;;;;;;;;;;;;;;;;137566;1273;22272;-82
2023/04/14 07:36:35;;;;;;;;;;;;;;;;;;137627;1273;22832;-80
2023/04/14 07:39:37;;;;;;;;;;;;;;;;;;137563;1273;22649;-80
2023/04/14 07:42:38;;;;;;;;;;;;;;;;;;137585;1273;22575;-81
2023/04/14 07:45:39;;;;;;;;;;;;;;;;;;137628;1273;22298;-81
2023/04/14 07:48:40;;;;;;;;;;;;;;;;;;137662;1273;22228;-79
2023/04/14 07:51:41;;;;;;;;;;;;;;;;;;137610;1273;22170;-80
2023/04/14 07:54:44;;;;;;;;;;;;;;;;;;137587;1273;22168;-79
2023/04/14 07:57:45;;;;;;;;;;;;;;;;;;137609;1273;22200;-79
2023/04/14 08:00:46;;;;;;;;;;;;;;;;;;137646;1273;22297;-80
2023/04/14 08:03:47;;;;;;;;;;;;;;;;;;137603;1273;22274;-80
2023/04/14 08:06:48;;;;;;;;;;;;;;;;;;137575;1273;22336;-79
2023/04/14 08:09:49;;;;;;;;;;;;;;;;;;137649;1273;22374;-80
2023/04/14 08:12:51;;;;;;;;;;;;;;;;;;137613;1273;22776;-78
2023/04/14 08:15:52;;;;;;;;;;;;;;;;;;137656;1273;22331;-78
2023/04/14 08:18:53;;;;;;;;;;;;;;;;;;137624;1261;22218;-79
2023/04/14 08:21:55;;;;;;;;;;;;;;;;;;137632;1273;22158;-78
2023/04/14 08:24:56;;;;;;;;;;;;;;;;;;137621;1273;22277;-78
2023/04/14 08:27:58;;;;;;;;;;;;;;;;;;137569;1273;22277;-79
2023/04/14 08:30:59;;;;;;;;;;;;;;;;;;137545;1267;22208;-79
2023/04/14 08:34:00;;;;;;;;;;;;;;;;;;137640;1273;22223;-79
2023/04/14 08:37:01;;;;;;;;;;;;;;;;;;137633;1273;22406;-80
2023/04/14 08:40:03;;;;;;;;;;;;;;;;;;137629;1270;22199;-79
2023/04/14 08:43:04;;;;;;;;;;;;;;;;;;137601;1273;22184;-78
2023/04/14 08:46:06;;;;;;;;;;;;;;;;;;137634;1273;22293;-79
2023/04/14 08:49:07;;;;;;;;;;;;;;;;;;137609;1273;22282;-78
2023/04/14 08:52:08;;;;;;;;;;;;;;;;;;137609;1273;22180;-80
2023/04/14 08:55:09;;;;;;;;;;;;;;;;;;137646;1273;22661;-79
2023/04/14 08:58:10;;;;;;;;;;;;;;;;;;137649;1273;22257;-80
2023/04/14 09:01:14;;;;;;;;;;;;;;;;;;137631;1273;22292;-80
2023/04/14 09:04:16;;;;;;;;;;;;;;;;;;137654;1273;22416;-80
2023/04/14 09:07:17;;;;;;;;;;;;;;;;;;137666;1273;22416;-79
2023/04/14 09:10:18;;;;;;;;;;;;;;;;;;137618;1273;22186;-78
2023/04/14 09:13:19;;;;;;;;;;;;;;;;;;137667;1273;22269;-79
2023/04/14 09:16:20;;;;;;;;;;;;;;;;;;137707;1273;22257;-79
2023/04/14 09:19:21;;;;;;;;;;;;;;;;;;137675;1273;23037;-79
2023/04/14 09:22:22;;;;;;;;;;;;;;;;;;137651;1273;22862;-78
2023/04/14 09:25:24;;;;;;;;;;;;;;;;;;137622;1273;22255;-79
2023/04/14 09:28:25;;;;;;;;;;;;;;;;;;137599;1273;22197;-78
2023/04/14 09:31:26;;;;;;;;;;;;;;;;;;137595;1273;22642;-80
2023/04/14 09:34:27;;;;;;;;;;;;;;;;;;137555;1273;22246;-78
2023/04/14 09:37:28;;;;;;;;;;;;;;;;;;137600;1273;22369;-79
2023/04/14 09:40:29;;;;;;;;;;;;;;;;;;137542;1273;22259;-79
2023/04/14 09:43:33;;;;;;;;;;;;;;;;;;137584;1273;22268;-81
2023/04/14 09:46:35;;;;;;;;;;;;;;;;;;137662;1273;22272;-79
2023/04/14 09:49:36;;;;;;;;;;;;;;;;;;137594;1273;22285;-80
2023/04/14 09:52:37;;;;;;;;;;;;;;;;;;137631;1273;22968;-78
2023/04/14 09:55:38;;;;;;;;;;;;;;;;;;137699;1273;22178;-79
2023/04/14 09:58:39;;;;;;;;;;;;;;;;;;137627;1273;22896;-79
2023/04/14 10:01:40;;;;;;;;;;;;;;;;;;137613;1273;22316;-81
2023/04/14 10:04:41;;;;;;;;;;;;;;;;;;137596;1273;22379;-81
2023/04/14 10:07:43;;;;;;;;;;;;;;;;;;137574;1273;22436;-80
2023/04/14 10:10:44;;;;;;;;;;;;;;;;;;137566;1273;22244;-81
2023/04/14 10:13:45;;;;;;;;;;;;;;;;;;137642;1262;22223;-81
2023/04/14 10:16:46;;;;;;;;;;;;;;;;;;137480;1266;22393;-81
2023/04/14 10:19:47;;;;;;;;;;;;;;;;;;137548;1273;22254;-84
2023/04/14 10:22:49;;;;;;;;;;;;;;;;;;137539;1273;22276;-84
2023/04/14 10:25:50;;;;;;;;;;;;;;;;;;137540;1273;22315;-82
2023/04/14 10:28:51;;;;;;;;;;;;;;;;;;137566;1273;22277;-84
2023/04/14 10:31:53;;;;;;;;;;;;;;;;;;137533;1273;22302;-84
2023/04/14 10:34:54;;;;;;;;;;;;;;;;;;137503;1273;22341;-82
2023/04/14 10:37:55;;;;;;;;;;;;;;;;;;137490;1273;23033;-85
2023/04/14 10:40:58;;;;;;;;;;;;;;;;;;137524;1273;22277;-81
2023/04/14 10:44:00;;;;;;;;;;;;;;;;;;137514;1273;22650;-85
2023/04/14 10:47:03;;;;;;;;;;;;;;;;;;137537;1269;22226;-83
2023/04/14 10:50:05;;;;;;;;;;;;;;;;;;137546;1273;22270;-83
2023/04/14 10:53:08;;;;;;;;;;;;;;;;;;137491;1273;22244;-83
2023/04/14 10:56:11;;;;;;;;;;;;;;;;;;137551;1273;22163;-84
2023/04/14 10:59:16;;;;;;;;;;;;;;;;;;137509;1267;22286;-83
2023/04/14 11:02:17;;;;;;;;;;;;;;;;;;137512;1273;22177;-83
2023/04/14 11:05:18;;;;;;;;;;;;;;;;;;137538;1273;22193;-83
2023/04/14 11:08:19;;;;;;;;;;;;;;;;;;137560;1273;22798;-82
2023/04/14 11:11:23;;;;;;;;;;;;;;;;;;137542;1273;22246;-81
2023/04/14 11:14:24;;;;;;;;;;;;;;;;;;137513;1273;22326;-78
2023/04/14 11:17:28;;;;;;;;;;;;;;;;;;137520;1273;22253;-82
2023/04/14 11:20:29;;;;;;;;;;;;;;;;;;137457;1273;22598;-82
2023/04/14 11:23:30;;;;;;;;;;;;;;;;;;137495;1273;22287;-83
2023/04/14 11:26:31;;;;;;;;;;;;;;;;;;137493;1273;22212;-80
2023/04/14 11:29:33;;;;;;;;;;;;;;;;;;137527;1273;22694;-80
2023/04/14 11:32:34;;;;;;;;;;;;;;;;;;137486;1273;22161;-80
2023/04/14 11:35:35;;;;;;;;;;;;;;;;;;137471;1273;22405;-80
2023/04/14 11:38:39;;;;;;;;;;;;;;;;;;137511;1273;22260;-81
2023/04/14 11:41:40;;;;;;;;;;;;;;;;;;137515;1273;22628;-80
2023/04/14 11:44:41;;;;;;;;;;;;;;;;;;137522;1273;22259;-81
2023/04/14 11:47:42;;;;;;;;;;;;;;;;;;137488;1273;22158;-80
2023/04/14 11:50:44;;;;;;;;;;;;;;;;;;137464;1273;22269;-80
2023/04/14 11:53:45;;;;;;;;;;;;;;;;;;137538;1273;22178;-82
2023/04/14 11:56:47;;;;;;;;;;;;;;;;;;137488;1273;22278;-77
2023/04/14 11:59:48;;;;;;;;;;;;;;;;;;137468;1273;22660;-80
2023/04/14 12:02:49;;;;;;;;;;;;;;;;;;137552;1273;22172;-81
2023/04/14 12:05:51;;;;;;;;;;;;;;;;;;137505;1273;22370;-79
2023/04/14 12:08:52;;;;;;;;;;;;;;;;;;137491;1273;22252;-79
2023/04/14 12:11:53;;;;;;;;;;;;;;;;;;137539;1273;22250;-80
2023/04/14 12:14:54;;;;;;;;;;;;;;;;;;137495;1273;22205;-78
2023/04/14 12:17:55;;;;;;;;;;;;;;;;;;137523;1273;22285;-80
2023/04/14 12:20:56;;;;;;;;;;;;;;;;;;137439;1263;22250;-81
2023/04/14 12:23:57;;;;;;;;;;;;;;;;;;137432;1273;22192;-80
2023/04/14 12:26:58;;;;;;;;;;;;;;;;;;137457;1270;22189;-79
2023/04/14 12:29:59;;;;;;;;;;;;;;;;;;137497;1273;22275;-80
2023/04/14 12:33:01;;;;;;;;;;;;;;;;;;137571;1272;22302;-78
2023/04/14 12:36:02;;;;;;;;;;;;;;;;;;137584;1273;22388;-79
2023/04/14 12:39:03;;;;;;;;;;;;;;;;;;137544;1273;22250;-80
2023/04/14 12:42:06;;;;;;;;;;;;;;;;;;137577;1273;22242;-80
2023/04/14 12:45:07;;;;;;;;;;;;;;;;;;137539;1272;22253;-79
2023/04/14 12:48:08;;;;;;;;;;;;;;;;;;137564;1273;22327;-79
2023/04/14 12:51:09;;;;;;;;;;;;;;;;;;137610;1273;22628;-80
2023/04/14 12:54:11;;;;;;;;;;;;;;;;;;137594;1273;22167;-81
2023/04/14 12:57:12;;;;;;;;;;;;;;;;;;137570;1273;22287;-80
2023/04/14 13:00:13;;;;;;;;;;;;;;;;;;137622;1264;22221;-80
2023/04/14 13:03:14;;;;;;;;;;;;;;;;;;137664;1273;22285;-79
2023/04/14 13:06:15;;;;;;;;;;;;;;;;;;137623;1273;22414;-80
2023/04/14 13:09:16;;;;;;;;;;;;;;;;;;137574;1273;22303;-80
2023/04/14 13:12:17;;;;;;;;;;;;;;;;;;137519;1273;22197;-77
2023/04/14 13:15:18;;;;;;;;;;;;;;;;;;137594;1273;22609;-79
2023/04/14 13:18:20;;;;;;;;;;;;;;;;;;137564;1273;22253;-79
2023/04/14 13:21:21;;;;;;;;;;;;;;;;;;137593;1273;22289;-79
2023/04/14 13:24:22;;;;;;;;;;;;;;;;;;137617;1273;22156;-80
2023/04/14 13:27:23;;;;;;;;;;;;;;;;;;137624;1273;22282;-79
2023/04/14 13:30:25;;;;;;;;;;;;;;;;;;137581;1273;22803;-79
2023/04/14 13:33:26;;;;;;;;;;;;;;;;;;137598;1273;22271;-80
2023/04/14 13:36:27;;;;;;;;;;;;;;;;;;137598;1273;23061;-79
2023/04/14 13:39:28;;;;;;;;;;;;;;;;;;137630;1273;22285;-80
2023/04/14 13:42:29;;;;;;;;;;;;;;;;;;137641;1273;22296;-80
2023/04/14 13:45:31;;;;;;;;;;;;;;;;;;137636;1273;22656;-80
2023/04/14 13:48:32;;;;;;;;;;;;;;;;;;137613;1253;22304;-79
2023/04/14 13:51:33;;;;;;;;;;;;;;;;;;137528;1273;23125;-79
2023/04/14 13:54:34;;;;;;;;;;;;;;;;;;137520;1273;22166;-79
2023/04/14 13:57:35;;;;;;;;;;;;;;;;;;137561;1273;22270;-81
2023/04/14 14:00:36;;;;;;;;;;;;;;;;;;137543;1273;22179;-80
2023/04/14 14:03:37;;;;;;;;;;;;;;;;;;137625;1273;22222;-80
2023/04/14 14:06:38;;;;;;;;;;;;;;;;;;137540;1273;22357;-79
2023/04/14 14:09:39;;;;;;;;;;;;;;;;;;137638;1273;22211;-79
2023/04/14 14:12:41;;;;;;;;;;;;;;;;;;137594;1272;22266;-80
2023/04/14 14:15:42;;;;;;;;;;;;;;;;;;137589;1273;22274;-79
2023/04/14 14:18:45;;;;;;;;;;;;;;;;;;137571;1273;22661;-79
2023/04/14 14:21:46;;;;;;;;;;;;;;;;;;137621;1267;22394;-79
2023/04/14 14:24:47;;;;;;;;;;;;;;;;;;137624;1273;22183;-79
2023/04/14 14:27:49;;;;;;;;;;;;;;;;;;137630;1273;22379;-80
2023/04/14 14:30:52;;;;;;;;;;;;;;;;;;137602;1273;22203;-79
2023/04/14 14:33:53;;;;;;;;;;;;;;;;;;137635;1273;22281;-80
2023/04/14 14:36:54;;;;;;;;;;;;;;;;;;137584;1273;22437;-79
2023/04/14 14:39:56;;;;;;;;;;;;;;;;;;137589;1273;22370;-79
2023/04/14 14:42:57;;;;;;;;;;;;;;;;;;137588;1273;22279;-80
2023/04/14 14:46:00;;;;;;;;;;;;;;;;;;137558;1273;22183;-79
2023/04/14 14:49:01;;;;;;;;;;;;;;;;;;137552;1273;22319;-79
2023/04/14 14:52:03;;;;;;;;;;;;;;;;;;137528;1273;22313;-80
2023/04/14 14:55:04;;;;;;;;;;;;;;;;;;137491;1273;22655;-77
2023/04/14 14:58:07;;;;;;;;;;;;;;;;;;137526;1273;22260;-76
2023/04/14 15:01:08;;;;;;;;;;;;;;;;;;137568;1273;22773;-79
2023/04/14 15:04:09;;;;;;;;;;;;;;;;;;137606;1273;22243;-78
2023/04/14 15:07:10;;;;;;;;;;;;;;;;;;137668;1273;22798;-80
2023/04/14 15:10:14;;;;;;;;;;;;;;;;;;137594;1273;22797;-80
2023/04/14 15:13:16;;;;;;;;;;;;;;;;;;137590;1273;22779;-79
2023/04/14 15:16:17;;;;;;;;;;;;;;;;;;137624;1269;22222;-78
2023/04/14 15:19:20;;;;;;;;;;;;;;;;;;137663;1273;22273;-80
2023/04/14 15:22:21;;;;;;;;;;;;;;;;;;137675;1273;22197;-80
2023/04/14 15:25:22;;;;;;;;;;;;;;;;;;137638;1268;22225;-80
2023/04/14 15:28:23;;;;;;;;;;;;;;;;;;137615;1273;22269;-80
2023/04/14 15:31:25;;;;;;;;;;;;;;;;;;137625;1273;22192;-79
2023/04/14 15:34:26;;;;;;;;;;;;;;;;;;137627;1273;22358;-80
2023/04/14 15:37:27;;;;;;;;;;;;;;;;;;137629;1272;22508;-79
2023/04/14 15:40:28;;;;;;;;;;;;;;;;;;137575;1273;22181;-79
2023/04/14 15:43:29;;;;;;;;;;;;;;;;;;137577;1272;22267;-82
2023/04/14 15:46:30;;;;;;;;;;;;;;;;;;137593;1259;22224;-80
2023/04/14 15:49:31;;;;;;;;;;;;;;;;;;137623;1273;22668;-79
2023/04/14 15:52:32;;;;;;;;;;;;;;;;;;137640;1272;22760;-79
2023/04/14 15:55:33;;;;;;;;;;;;;;;;;;137636;1273;22719;-81
2023/04/14 15:58:35;;;;;;;;;;;;;;;;;;137614;1272;22156;-81
2023/04/14 16:01:36;;;;;;;;;;;;;;;;;;137594;1273;22836;-80
2023/04/14 16:04:37;;;;;;;;;;;;;;;;;;137579;1273;22206;-79
2023/04/14 16:07:38;;;;;;;;;;;;;;;;;;137565;1273;22460;-79
2023/04/14 16:10:40;;;;;;;;;;;;;;;;;;137611;1273;22194;-80
2023/04/14 16:13:42;;;;;;;;;;;;;;;;;;137647;1273;22285;-80
2023/04/14 16:16:45;;;;;;;;;;;;;;;;;;137684;1272;22303;-80
2023/04/14 16:19:47;;;;;;;;;;;;;;;;;;137663;1273;22350;-80
2023/04/14 16:22:48;;;;;;;;;;;;;;;;;;137583;1273;22683;-81
2023/04/14 16:25:49;;;;;;;;;;;;;;;;;;137583;1273;22334;-80
2023/04/14 16:28:51;;;;;;;;;;;;;;;;;;137612;1273;22198;-81
2023/04/14 16:31:52;;;;;;;;;;;;;;;;;;137586;1273;22243;-80
2023/04/14 16:34:53;;;;;;;;;;;;;;;;;;137582;1273;22277;-80
2023/04/14 16:37:54;;;;;;;;;;;;;;;;;;137563;1272;22371;-80
2023/04/14 16:40:56;;;;;;;;;;;;;;;;;;137560;1273;22247;-80
2023/04/14 16:43:57;;;;;;;;;;;;;;;;;;137521;1272;22275;-79
2023/04/14 16:46:58;;;;;;;;;;;;;;;;;;137564;1273;22364;-79
2023/04/14 16:49:59;;;;;;;;;;;;;;;;;;137591;1273;23078;-80
2023/04/14 16:53:00;;;;;;;;;;;;;;;;;;137565;1273;22253;-80
2023/04/14 16:56:01;;;;;;;;;;;;;;;;;;137612;1273;22339;-80
2023/04/14 16:59:02;;;;;;;;;;;;;;;;;;137559;1273;22309;-80
2023/04/14 17:02:03;;;;;;;;;;;;;;;;;;137610;1270;22633;-80
2023/04/14 17:05:06;;;;;;;;;;;;;;;;;;137574;1273;22736;-80
2023/04/14 17:08:07;;;;;;;;;;;;;;;;;;137623;1273;22885;-81
2023/04/14 17:11:08;;;;;;;;;;;;;;;;;;137631;1273;22844;-81
2023/04/14 17:14:09;;;;;;;;;;;;;;;;;;137620;1273;22299;-85
2023/04/14 17:17:10;;;;;;;;;;;;;;;;;;137595;1273;22212;-81
2023/04/14 17:20:13;;;;;;;;;;;;;;;;;;137560;1273;22266;-81
2023/04/14 17:23:15;;;;;;;;;;;;;;;;;;137603;1273;22287;-82
2023/04/14 17:26:16;;;;;;;;;;;;;;;;;;137562;1273;22177;-81
2023/04/14 17:29:17;;;;;;;;;;;;;;;;;;137569;1273;22277;-79
2023/04/14 17:32:18;;;;;;;;;;;;;;;;;;137579;1272;22187;-81
2023/04/14 17:35:20;;;;;;;;;;;;;;;;;;137561;1273;22783;-80
2023/04/14 17:38:21;;;;;;;;;;;;;;;;;;137584;1273;23131;-80
2023/04/14 17:41:23;;;;;;;;;;;;;;;;;;137641;1273;22298;-80
2023/04/14 17:44:24;;;;;;;;;;;;;;;;;;137581;1273;22261;-79
2023/04/14 17:47:25;;;;;;;;;;;;;;;;;;137597;1273;22215;-81
2023/04/14 17:50:27;;;;;;;;;;;;;;;;;;137623;1273;22844;-79
2023/04/14 17:53:28;;;;;;;;;;;;;;;;;;137595;1273;22347;-80
2023/04/14 17:56:30;;;;;;;;;;;;;;;;;;137607;1273;22364;-81
2023/04/14 17:59:31;;;;;;;;;;;;;;;;;;137629;1272;22322;-80
2023/04/14 18:02:34;;;;;;;;;;;;;;;;;;137590;1272;22270;-81
2023/04/14 18:05:35;;;;;;;;;;;;;;;;;;137619;1273;22460;-81
2023/04/14 18:08:36;;;;;;;;;;;;;;;;;;137609;1273;22257;-80
2023/04/14 18:11:37;;;;;;;;;;;;;;;;;;137564;1273;22286;-82
2023/04/14 18:14:38;;;;;;;;;;;;;;;;;;137590;1272;22277;-83
2023/04/14 18:17:40;;;;;;;;;;;;;;;;;;137646;1273;22275;-83
2023/04/14 18:20:41;;;;;;;;;;;;;;;;;;137571;1273;22221;-83
2023/04/14 18:23:42;;;;;;;;;;;;;;;;;;137606;1273;22307;-83
2023/04/14 18:26:43;;;;;;;;;;;;;;;;;;137599;1273;22192;-82
2023/04/14 18:29:45;;;;;;;;;;;;;;;;;;137616;1273;22203;-83
2023/04/14 18:32:46;;;;;;;;;;;;;;;;;;137624;1273;22668;-82
2023/04/14 18:35:47;;;;;;;;;;;;;;;;;;137633;1273;22416;-82
2023/04/14 18:38:50;;;;;;;;;;;;;;;;;;137608;1273;22373;-83
2023/04/14 18:41:51;;;;;;;;;;;;;;;;;;137611;1273;22213;-83
2023/04/14 18:44:52;;;;;;;;;;;;;;;;;;137640;1273;22273;-83
2023/04/14 18:47:54;;;;;;;;;;;;;;;;;;137627;1273;22201;-83
2023/04/14 18:50:55;;;;;;;;;;;;;;;;;;137609;1273;22397;-82
2023/04/14 18:53:56;;;;;;;;;;;;;;;;;;137674;1273;22199;-83
2023/04/14 18:56:57;;;;;;;;;;;;;;;;;;137639;1273;22289;-83
2023/04/14 18:59:58;;;;;;;;;;;;;;;;;;137644;1266;22220;-80
2023/04/14 19:02:59;;;;;;;;;;;;;;;;;;137623;1273;22152;-81
2023/04/14 19:06:00;;;;;;;;;;;;;;;;;;137602;1273;22351;-83
2023/04/14 19:09:02;;;;;;;;;;;;;;;;;;137599;1273;22195;-81
2023/04/14 19:12:04;;;;;;;;;;;;;;;;;;137441;1273;186547;-81
2023/04/14 19:15:05;;;;;;;;;;;;;;;;;;137576;1273;22297;-82
2023/04/14 19:18:06;;;;;;;;;;;;;;;;;;137578;1273;22260;-82
2023/04/14 19:21:09;;;;;;;;;;;;;;;;;;137558;1268;22249;-82
2023/04/14 19:24:11;;;;;;;;;;;;;;;;;;137526;1273;22278;-82
2023/04/14 19:27:12;;;;;;;;;;;;;;;;;;137555;1273;22189;-82
2023/04/14 19:30:13;;;;;;;;;;;;;;;;;;137541;1273;22250;-83
2023/04/14 19:33:14;;;;;;;;;;;;;;;;;;137627;1273;22188;-81
2023/04/14 19:36:15;;;;;;;;;;;;;;;;;;137626;1273;22366;-81
2023/04/14 19:39:18;;;;;;;;;;;;;;;;;;137607;1273;22237;-81
2023/04/14 19:42:20;;;;;;;;;;;;;;;;;;137616;1273;22291;-81
2023/04/14 19:45:21;;;;;;;;;;;;;;;;;;137605;1273;22290;-82
2023/04/14 19:48:23;;;;;;;;;;;;;;;;;;137632;1273;22241;-80
2023/04/14 19:51:26;;;;;;;;;;;;;;;;;;137626;1273;22283;-81
2023/04/14 19:54:27;;;;;;;;;;;;;;;;;;137649;1273;22741;-80
2023/04/14 19:57:28;;;;;;;;;;;;;;;;;;137620;1273;22239;-80
2023/04/14 20:00:30;;;;;;;;;;;;;;;;;;137609;1273;22222;-81
2023/04/14 20:03:31;;;;;;;;;;;;;;;;;;137607;1273;22406;-80
2023/04/14 20:06:33;;;;;;;;;;;;;;;;;;137656;1261;22376;-81
2023/04/14 20:09:34;;;;;;;;;;;;;;;;;;137595;1273;22268;-80
2023/04/14 20:12:35;;;;;;;;;;;;;;;;;;137620;1273;22257;-80
2023/04/14 20:15:36;;;;;;;;;;;;;;;;;;137558;1273;22273;-80
2023/04/14 20:18:38;;;;;;;;;;;;;;;;;;137596;1273;22281;-81